createdAt,value
2019-04-22T00:00:51.417Z,4.33
2019-04-22T00:03:22.117Z,3.17
2019-04-22T00:06:12.903Z,3.73
2019-04-22T00:08:54.166Z,2.90
2019-04-22T00:11:25.900Z,3.13
2019-04-22T00:16:33.892Z,2.87
2019-04-22T00:21:31.935Z,2.60
2019-04-22T00:26:39.288Z,3.13
2019-04-22T00:29:10.169Z,3.03
2019-04-22T00:32:02.044Z,2.90
2019-04-22T00:34:33.920Z,3.03
2019-04-22T00:37:11.614Z,4.13
2019-04-22T00:39:44.444Z,3.67
2019-04-22T00:42:09.971Z,3.40
2019-04-22T00:44:45.173Z,4.27
2019-04-22T00:47:17.986Z,3.53
2019-04-22T00:50:12.332Z,3.10
2019-04-22T00:52:16.710Z,4.77
2019-04-22T00:54:56.113Z,3.90
2019-04-22T00:57:21.718Z,3.70
2019-04-22T00:59:55.430Z,3.60
2019-04-22T01:02:27.737Z,4.00
2019-04-22T01:05:01.123Z,3.20
2019-04-22T01:07:30.863Z,3.00
2019-04-22T01:12:37.476Z,3.57
2019-04-22T01:15:07.431Z,3.37
2019-04-22T01:17:39.951Z,4.63
2019-04-22T01:20:25.748Z,2.97
2019-04-22T01:22:34.902Z,4.10
2019-04-22T01:25:07.993Z,3.20
2019-04-22T01:27:43.381Z,2.93
2019-04-22T01:30:07.256Z,4.77
2019-04-22T01:32:32.815Z,3.50
2019-04-22T01:35:12.959Z,4.00
2019-04-22T01:37:48.466Z,3.60
2019-04-22T01:40:33.167Z,3.60
2019-04-22T01:43:15.077Z,3.67
2019-04-22T01:45:36.736Z,3.43
2019-04-22T01:48:02.912Z,3.83
2019-04-22T01:50:38.507Z,2.53
2019-04-22T01:53:11.762Z,3.23
2019-04-22T01:55:43.979Z,2.57
2019-04-22T01:58:11.087Z,3.70
2019-04-22T02:00:45.356Z,2.60
2019-04-22T02:03:17.801Z,3.00
2019-04-22T02:05:50.480Z,3.67
2019-04-22T02:08:36.578Z,3.23
2019-04-22T02:10:54.795Z,3.13
2019-04-22T02:13:33.517Z,4.17
2019-04-22T02:15:58.772Z,2.80
2019-04-22T02:18:36.259Z,2.97
2019-04-22T02:21:01.694Z,4.40
2019-04-22T02:26:07.146Z,4.33
2019-04-22T02:28:42.783Z,3.93
2019-04-22T02:34:12.063Z,3.97
2019-04-22T02:47:01.154Z,3.60
2019-04-22T02:51:31.782Z,4.43
2019-04-22T02:59:11.661Z,3.63
2019-04-22T03:04:10.907Z,4.43
2019-04-22T03:06:39.758Z,3.60
2019-04-22T03:09:18.499Z,4.10
2019-04-22T03:12:04.435Z,6.20
2019-04-22T03:14:33.819Z,3.63
2019-04-22T03:24:35.810Z,3.70
2019-04-22T03:27:01.101Z,3.87
2019-04-22T03:33:09.458Z,3.80
2019-04-22T03:35:31.027Z,3.47
2019-04-22T03:40:19.586Z,5.13
2019-04-22T03:53:06.219Z,4.40
2019-04-22T04:08:14.574Z,6.57
2019-04-22T04:13:33.792Z,6.57
2019-04-22T04:15:57.697Z,6.93
2019-04-22T04:18:25.800Z,6.27
2019-04-22T04:21:01.576Z,7.73
2019-04-22T04:26:24.001Z,7.20
2019-04-22T04:31:11.378Z,6.03
2019-04-22T04:33:38.140Z,6.37
2019-04-22T04:36:14.695Z,6.00
2019-04-22T04:38:45.672Z,5.23
2019-04-22T04:41:26.674Z,6.53
2019-04-22T04:43:56.427Z,4.70
2019-04-22T04:46:24.812Z,4.90
2019-04-22T04:49:00.533Z,4.13
2019-04-22T04:51:33.264Z,3.73
2019-04-22T04:54:04.194Z,4.13
2019-04-22T04:56:36.430Z,4.57
2019-04-22T04:59:19.495Z,3.67
2019-04-22T05:01:35.189Z,5.57
2019-04-22T05:09:15.046Z,4.80
2019-04-22T05:11:53.758Z,5.57
2019-04-22T05:14:14.449Z,5.30
2019-04-22T05:19:15.500Z,5.30
2019-04-22T05:21:51.452Z,5.37
2019-04-22T05:24:29.292Z,4.93
2019-04-22T05:27:05.275Z,5.37
2019-04-22T05:29:17.269Z,5.80
2019-04-22T05:31:52.305Z,6.03
2019-04-22T05:34:22.851Z,4.77
2019-04-22T05:36:57.141Z,4.97
2019-04-22T05:39:24.621Z,6.20
2019-04-22T05:42:03.109Z,5.13
2019-04-22T05:44:39.463Z,5.30
2019-04-22T05:47:01.077Z,9.87
2019-04-22T05:49:48.074Z,6.73
2019-04-22T05:52:11.106Z,5.37
2019-04-22T05:54:40.126Z,5.47
2019-04-22T05:57:14.465Z,5.60
2019-04-22T05:59:50.246Z,4.27
2019-04-22T06:02:24.087Z,4.07
2019-04-22T06:04:55.127Z,4.93
2019-04-22T06:07:25.322Z,5.03
2019-04-22T06:09:49.256Z,5.43
2019-04-22T06:12:23.429Z,4.30
2019-04-22T06:14:58.127Z,5.50
2019-04-22T06:17:32.226Z,5.17
2019-04-22T06:20:02.752Z,4.53
2019-04-22T06:22:50.442Z,4.33
2019-04-22T06:25:16.258Z,5.63
2019-04-22T06:27:42.896Z,5.40
2019-04-22T06:30:17.235Z,5.27
2019-04-22T06:32:46.941Z,4.17
2019-04-22T06:35:23.271Z,4.30
2019-04-22T06:37:55.321Z,5.40
2019-04-22T06:40:24.669Z,6.50
2019-04-22T06:43:01.442Z,5.23
2019-04-22T06:45:23.427Z,4.00
2019-04-22T06:48:17.903Z,4.10
2019-04-22T06:50:32.801Z,6.33
2019-04-22T06:53:06.783Z,4.50
2019-04-22T06:55:39.023Z,5.67
2019-04-22T06:58:04.621Z,4.63
2019-04-22T07:00:38.388Z,6.53
2019-04-22T07:03:30.392Z,4.43
2019-04-22T07:05:41.314Z,4.43
2019-04-22T07:08:34.587Z,4.00
2019-04-22T07:13:10.955Z,4.03
2019-04-22T07:15:53.198Z,4.27
2019-04-22T07:18:26.152Z,3.70
2019-04-22T07:23:45.681Z,4.47
2019-04-22T07:25:56.574Z,5.27
2019-04-22T07:28:27.391Z,5.03
2019-04-22T07:31:05.035Z,4.83
2019-04-22T07:36:32.154Z,6.57
2019-04-22T07:38:52.718Z,5.80
2019-04-22T07:41:17.222Z,4.60
2019-04-22T07:44:02.961Z,4.83
2019-04-22T07:46:18.708Z,7.83
2019-04-22T07:48:53.900Z,6.10
2019-04-22T07:51:24.501Z,6.17
2019-04-22T07:53:58.860Z,4.67
2019-04-22T07:56:24.260Z,5.40
2019-04-22T07:58:55.663Z,5.60
2019-04-22T08:01:42.760Z,5.20
2019-04-22T08:04:15.195Z,6.10
2019-04-22T08:06:43.775Z,6.47
2019-04-22T08:09:13.913Z,5.47
2019-04-22T08:14:18.387Z,5.03
2019-04-22T08:16:45.165Z,6.33
2019-04-22T08:21:52.115Z,6.10
2019-04-22T08:24:25.299Z,6.90
2019-04-22T08:26:53.121Z,6.20
2019-04-22T08:29:38.090Z,4.60
2019-04-22T08:32:01.107Z,4.27
2019-04-22T08:34:32.596Z,5.60
2019-04-22T08:39:56.699Z,6.13
2019-04-22T08:42:13.911Z,3.50
2019-04-22T08:45:00.532Z,3.70
2019-04-22T08:47:21.822Z,3.58
2019-04-22T08:49:52.051Z,5.40
2019-04-22T08:52:16.013Z,5.08
2019-04-22T08:54:52.298Z,4.83
2019-04-22T08:57:18.342Z,7.03
2019-04-22T08:59:50.032Z,4.40
2019-04-22T09:02:31.851Z,5.08
2019-04-22T09:04:53.897Z,3.40
2019-04-22T09:07:28.604Z,4.28
2019-04-22T09:10:00.042Z,4.00
2019-04-22T09:12:50.101Z,4.60
2019-04-22T09:14:57.182Z,4.62
2019-04-22T09:17:34.911Z,3.40
2019-04-22T09:20:10.840Z,3.60
2019-04-22T09:22:39.064Z,4.25
2019-04-22T09:25:11.720Z,3.70
2019-04-22T09:27:44.299Z,5.03
2019-04-22T09:30:21.674Z,4.17
2019-04-22T09:32:54.237Z,6.00
2019-04-22T09:35:17.337Z,3.85
2019-04-22T09:38:00.270Z,4.45
2019-04-22T09:40:21.723Z,6.60
2019-04-22T09:42:57.801Z,5.03
2019-04-22T09:45:21.596Z,4.05
2019-04-22T09:48:01.776Z,4.83
2019-04-22T09:50:38.541Z,4.28
2019-04-22T09:53:09.392Z,3.67
2019-04-22T09:55:34.596Z,4.22
2019-04-22T09:58:09.659Z,5.72
2019-04-22T10:00:42.975Z,4.45
2019-04-22T10:03:13.654Z,5.50
2019-04-22T10:05:52.520Z,4.87
2019-04-22T10:08:24.338Z,5.20
2019-04-22T10:10:53.077Z,5.28
2019-04-22T10:13:27.561Z,4.50
2019-04-22T10:15:58.957Z,3.85
2019-04-22T10:18:25.910Z,4.10
2019-04-22T10:21:00.641Z,4.03
2019-04-22T10:23:31.305Z,3.85
2019-04-22T10:26:04.792Z,3.98
2019-04-22T10:28:39.705Z,3.52
2019-04-22T10:31:21.847Z,3.58
2019-04-22T10:33:30.902Z,5.20
2019-04-22T10:35:47.592Z,5.03
2019-04-22T10:38:18.589Z,5.95
2019-04-22T10:40:50.321Z,3.70
2019-04-22T10:43:21.213Z,4.75
2019-04-22T10:45:54.342Z,6.08
2019-04-22T10:48:26.106Z,4.60
2019-04-22T10:50:56.842Z,4.22
2019-04-22T10:53:27.495Z,4.08
2019-04-22T10:55:59.096Z,4.40
2019-04-22T10:58:30.744Z,4.05
2019-04-22T11:01:01.103Z,5.35
2019-04-22T11:03:33.340Z,5.03
2019-04-22T11:06:03.611Z,5.05
2019-04-22T11:08:44.449Z,4.70
2019-04-22T11:11:18.959Z,5.05
2019-04-22T11:13:37.926Z,4.70
2019-04-22T11:16:09.710Z,5.90
2019-04-22T11:18:41.244Z,3.47
2019-04-22T11:21:13.698Z,4.20
2019-04-22T11:23:44.800Z,3.77
2019-04-22T11:26:15.569Z,5.92
2019-04-22T11:28:47.519Z,3.80
2019-04-22T11:31:18.731Z,4.45
2019-04-22T11:33:50.180Z,4.33
2019-04-22T11:36:21.722Z,5.00
2019-04-22T11:39:00.367Z,4.17
2019-04-22T11:41:25.616Z,4.10
2019-04-22T11:43:57.004Z,4.35
2019-04-22T11:46:27.331Z,3.77
2019-04-22T11:48:58.123Z,4.72
2019-04-22T11:51:29.961Z,4.35
2019-04-22T11:54:01.067Z,5.50
2019-04-22T11:56:31.358Z,9.78
2019-04-22T11:59:02.658Z,4.67
2019-04-22T12:01:33.035Z,5.25
2019-04-22T12:04:04.087Z,3.87
2019-04-22T12:06:35.813Z,3.98
2019-04-22T12:09:12.227Z,7.05
2019-04-22T12:11:42.408Z,3.85
2019-04-22T12:14:13.940Z,4.67
2019-04-22T12:16:45.582Z,5.53
2019-04-22T12:19:15.793Z,5.67
2019-04-22T12:21:46.858Z,4.75
2019-04-22T12:24:17.273Z,4.72
2019-04-22T12:26:48.378Z,4.80
2019-04-22T12:29:20.688Z,4.10
2019-04-22T12:31:51.490Z,4.12
2019-04-22T12:34:21.655Z,5.97
2019-04-22T12:36:52.029Z,3.65
2019-04-22T12:39:23.253Z,3.47
2019-04-22T12:41:54.078Z,5.55
2019-04-22T12:44:24.537Z,5.30
2019-04-22T12:46:56.292Z,5.70
2019-04-22T12:49:28.037Z,7.67
2019-04-22T12:51:58.954Z,3.65
2019-04-22T12:54:31.153Z,7.33
2019-04-22T12:57:01.821Z,3.52
2019-04-22T12:59:32.049Z,5.80
2019-04-22T13:02:03.044Z,6.00
2019-04-22T13:04:34.301Z,4.25
2019-04-22T13:07:04.359Z,5.17
2019-04-22T13:09:34.866Z,3.98
2019-04-22T13:12:06.894Z,7.37
2019-04-22T13:14:39.129Z,5.30
2019-04-22T13:17:10.313Z,4.15
2019-04-22T13:19:42.379Z,6.22
2019-04-22T13:22:14.627Z,5.87
2019-04-22T13:24:45.820Z,5.58
2019-04-22T13:27:17.208Z,4.12
2019-04-22T13:29:48.749Z,5.42
2019-04-22T13:32:20.777Z,5.70
2019-04-22T13:34:55.163Z,5.87
2019-04-22T13:37:23.286Z,6.55
2019-04-22T13:39:54.795Z,7.17
2019-04-22T13:42:25.496Z,5.20
2019-04-22T13:44:58.141Z,7.87
2019-04-22T13:47:42.392Z,3.95
2019-04-22T13:50:47.738Z,8.65
2019-04-22T13:53:03.646Z,7.70
2019-04-22T13:55:43.711Z,5.62
2019-04-22T13:57:57.248Z,4.20
2019-04-22T14:00:14.553Z,5.08
2019-04-22T14:03:02.413Z,5.70
2019-04-22T14:05:33.179Z,6.08
2019-04-22T14:08:04.870Z,5.97
2019-04-22T14:10:36.355Z,4.37
2019-04-22T14:13:07.927Z,3.65
2019-04-22T14:15:38.237Z,4.35
2019-04-22T14:18:08.585Z,6.62
2019-04-22T14:20:40.722Z,5.75
2019-04-22T14:23:12.277Z,3.12
2019-04-22T14:25:43.480Z,4.20
2019-04-22T14:28:17.575Z,4.42
2019-04-22T14:30:46.435Z,3.67
2019-04-22T14:33:20.257Z,5.45
2019-04-22T14:35:52.455Z,4.08
2019-04-22T14:38:23.801Z,5.12
2019-04-22T14:40:55.893Z,3.72
2019-04-22T14:43:57.872Z,3.95
2019-04-22T14:46:38.867Z,6.35
2019-04-22T14:49:10.363Z,8.78
2019-04-22T14:51:25.536Z,4.92
2019-04-22T14:53:56.946Z,4.37
2019-04-22T14:56:10.540Z,5.85
2019-04-22T14:58:42.797Z,4.65
2019-04-22T15:01:14.834Z,4.92
2019-04-22T15:03:48.427Z,3.92
2019-04-22T15:06:33.778Z,3.92
2019-04-22T15:09:26.089Z,3.30
2019-04-22T15:12:15.426Z,4.42
2019-04-22T15:14:37.559Z,5.58
2019-04-22T15:17:27.089Z,6.65
2019-04-22T15:20:11.914Z,7.65
2019-04-22T15:22:42.194Z,5.20
2019-04-22T15:25:12.602Z,5.22
2019-04-22T15:27:45.931Z,5.72
2019-04-22T15:30:17.242Z,8.93
2019-04-22T15:32:47.515Z,4.50
2019-04-22T15:35:31.674Z,3.55
2019-04-22T15:38:24.333Z,4.90
2019-04-22T15:40:58.676Z,6.50
2019-04-22T15:43:41.611Z,6.17
2019-04-22T15:46:13.883Z,5.90
2019-04-22T15:48:44.185Z,5.62
2019-04-22T15:51:14.435Z,4.28
2019-04-22T15:53:45.450Z,4.53
2019-04-22T15:56:16.826Z,6.87
2019-04-22T15:58:48.021Z,7.70
2019-04-22T16:01:25.914Z,8.20
2019-04-22T16:03:52.357Z,6.67
2019-04-22T16:06:26.162Z,4.40
2019-04-22T16:09:17.170Z,6.03
2019-04-22T16:11:51.777Z,7.92
2019-04-22T16:14:31.392Z,6.30
2019-04-22T16:16:56.920Z,8.85
2019-04-22T16:19:28.320Z,6.00
2019-04-22T16:22:03.893Z,10.48
2019-04-22T16:24:48.028Z,6.85
2019-04-22T16:27:22.705Z,9.58
2019-04-22T16:29:52.931Z,14.20
2019-04-22T16:32:25.529Z,8.63
2019-04-22T16:34:56.810Z,5.90
2019-04-22T16:37:28.588Z,8.48
2019-04-22T16:39:59.037Z,8.63
2019-04-22T16:42:37.893Z,7.47
2019-04-22T16:45:01.915Z,9.53
2019-04-22T16:47:33.354Z,10.40
2019-04-22T16:50:03.920Z,10.05
2019-04-22T16:52:34.281Z,7.80
2019-04-22T16:55:05.346Z,8.10
2019-04-22T16:57:35.839Z,6.50
2019-04-22T17:00:09.083Z,7.25
2019-04-22T17:03:02.881Z,7.87
2019-04-22T17:05:51.665Z,6.20
2019-04-22T17:08:24.406Z,5.72
2019-04-22T17:10:55.753Z,5.67
2019-04-22T17:13:30.273Z,4.87
2019-04-22T17:16:00.838Z,6.17
2019-04-22T17:18:31.029Z,6.17
2019-04-22T17:21:04.697Z,8.10
2019-04-22T17:23:34.026Z,6.62
2019-04-22T17:26:08.288Z,4.97
2019-04-22T17:28:39.772Z,8.63
2019-04-22T17:31:10.857Z,6.47
2019-04-22T17:33:41.287Z,8.00
2019-04-22T17:36:11.988Z,7.62
2019-04-22T17:38:52.070Z,9.95
2019-04-22T17:41:27.083Z,8.68
2019-04-22T17:44:13.525Z,8.58
2019-04-22T17:46:40.280Z,7.95
2019-04-22T17:49:34.039Z,12.58
2019-04-22T17:57:24.001Z,8.35
2019-04-22T17:59:55.394Z,7.22
2019-04-22T18:02:25.156Z,8.05
2019-04-22T18:04:48.000Z,10.68
2019-04-22T18:07:35.603Z,7.85
2019-04-22T18:10:28.817Z,8.50
2019-04-22T18:12:42.602Z,9.93
2019-04-22T18:15:12.088Z,7.03
2019-04-22T18:17:52.639Z,8.95
2019-04-22T18:20:09.814Z,8.78
2019-04-22T18:22:39.359Z,10.72
2019-04-22T18:25:11.509Z,11.55
2019-04-22T18:27:55.179Z,9.93
2019-04-22T18:30:17.979Z,9.55
2019-04-22T18:32:58.572Z,8.88
2019-04-22T18:35:29.741Z,11.18
2019-04-22T18:38:05.106Z,8.50
2019-04-22T18:40:30.859Z,7.65
2019-04-22T18:43:16.413Z,7.03
2019-04-22T18:48:03.970Z,8.58
2019-04-22T18:50:53.189Z,12.07
2019-04-22T18:53:41.533Z,8.83
2019-04-22T18:56:16.357Z,7.17
2019-04-22T18:58:39.478Z,10.53
2019-04-22T19:00:57.781Z,9.60
2019-04-22T19:03:32.185Z,8.07
2019-04-22T19:06:30.555Z,11.47
2019-04-22T19:08:55.623Z,7.55
2019-04-22T19:11:26.962Z,9.07
2019-04-22T19:14:05.942Z,8.63
2019-04-22T19:16:36.120Z,6.95
2019-04-22T19:21:33.810Z,8.83
2019-04-22T19:24:04.589Z,10.55
2019-04-22T19:26:50.318Z,12.10
2019-04-22T19:29:16.855Z,9.78
2019-04-22T19:31:45.721Z,9.83
2019-04-22T19:34:18.828Z,7.73
2019-04-22T19:36:51.626Z,10.43
2019-04-22T19:39:11.788Z,11.30
2019-04-22T19:41:55.786Z,12.50
2019-04-22T19:44:25.994Z,10.73
2019-04-22T19:47:18.624Z,8.67
2019-04-22T19:49:44.088Z,9.53
2019-04-22T19:52:05.173Z,13.93
2019-04-22T19:54:29.014Z,12.83
2019-04-22T19:56:58.955Z,14.80
2019-04-22T19:59:42.572Z,12.77
2019-04-22T20:02:31.438Z,9.27
2019-04-22T20:05:31.081Z,9.97
2019-04-22T20:08:08.349Z,10.30
2019-04-22T20:10:30.056Z,10.60
2019-04-22T20:13:09.643Z,8.23
2019-04-22T20:15:33.291Z,13.47
2019-04-22T20:18:27.022Z,12.17
2019-04-22T20:20:46.541Z,13.23
2019-04-22T20:23:10.222Z,11.37
2019-04-22T20:25:40.674Z,15.20
2019-04-22T20:28:19.674Z,14.80
2019-04-22T20:30:51.121Z,12.37
2019-04-22T20:33:33.229Z,14.00
2019-04-22T20:35:58.649Z,11.27
2019-04-22T20:38:26.233Z,9.87
2019-04-22T20:40:55.317Z,12.43
2019-04-22T20:43:37.151Z,10.97
2019-04-22T20:46:05.037Z,10.03
2019-04-22T20:48:41.297Z,10.00
2019-04-22T20:51:09.551Z,10.47
2019-04-22T20:53:46.053Z,12.83
2019-04-22T20:56:09.965Z,12.27
2019-04-22T20:58:45.255Z,13.53
2019-04-22T21:01:06.748Z,12.23
2019-04-22T21:03:37.380Z,12.37
2019-04-22T21:06:16.353Z,14.77
2019-04-22T21:08:54.860Z,9.70
2019-04-22T21:11:23.579Z,13.37
2019-04-22T21:13:58.168Z,11.90
2019-04-22T21:16:36.584Z,9.60
2019-04-22T21:19:02.743Z,12.13
2019-04-22T21:21:37.994Z,11.03
2019-04-22T21:23:58.379Z,12.17
2019-04-22T21:26:33.575Z,10.03
2019-04-22T21:29:09.468Z,16.00
2019-04-22T21:31:46.492Z,11.73
2019-04-22T21:34:10.319Z,13.27
2019-04-22T21:36:50.623Z,12.50
2019-04-22T21:39:17.761Z,11.60
2019-04-22T21:41:47.172Z,12.23
2019-04-22T21:44:23.639Z,13.20
2019-04-22T21:47:08.652Z,16.20
2019-04-22T21:49:29.660Z,12.97
2019-04-22T21:52:01.536Z,11.93
2019-04-22T21:54:34.049Z,14.73
2019-04-22T21:59:40.442Z,12.53
2019-04-22T22:02:25.679Z,15.80
2019-04-22T22:04:47.369Z,14.90
2019-04-22T22:07:13.287Z,13.20
2019-04-22T22:09:58.684Z,12.63
2019-04-22T22:12:24.249Z,13.80
2019-04-22T22:15:05.473Z,9.77
2019-04-22T22:17:31.467Z,12.03
2019-04-22T22:19:57.869Z,12.20
2019-04-22T22:22:50.378Z,11.93
2019-04-22T22:25:11.047Z,13.60
2019-04-22T22:27:40.539Z,15.07
2019-04-22T22:30:31.883Z,14.87
2019-04-22T22:32:40.670Z,14.40
2019-04-22T22:35:13.273Z,13.77
2019-04-22T22:37:50.408Z,13.20
2019-04-22T22:40:09.325Z,15.30
2019-04-22T22:42:41.817Z,13.40
2019-04-22T22:45:17.571Z,13.17
2019-04-22T22:48:05.433Z,13.87
2019-04-22T22:50:36.007Z,13.67
2019-04-22T22:53:15.484Z,16.10
2019-04-22T22:55:37.131Z,13.10
2019-04-22T22:58:11.466Z,11.63
2019-04-22T23:00:39.478Z,17.07
2019-04-22T23:05:55.403Z,14.37
2019-04-22T23:08:24.303Z,13.43
2019-04-22T23:10:57.442Z,13.07
2019-04-22T23:13:26.030Z,14.17
2019-04-22T23:15:46.598Z,13.97
2019-04-22T23:18:03.803Z,16.00
2019-04-22T23:20:38.307Z,12.07
2019-04-22T23:23:25.739Z,12.87
2019-04-22T23:26:02.293Z,14.83
2019-04-22T23:28:45.952Z,13.20
2019-04-22T23:31:31.986Z,14.80
2019-04-22T23:34:15.888Z,13.00
2019-04-22T23:37:07.293Z,13.63
2019-04-22T23:39:48.395Z,11.77
2019-04-22T23:42:19.357Z,17.30
2019-04-22T23:44:46.944Z,16.63
2019-04-22T23:47:31.208Z,19.80
2019-04-22T23:50:08.857Z,15.83
2019-04-22T23:53:02.169Z,10.73
2019-04-22T23:55:37.010Z,13.77
2019-04-22T23:58:11.801Z,17.57
